Time;durP1;ratioP1;P1;durP2;ratioP2;P2;SDS_P1;SDS_P2;PMS_P1;PMS_P2;Temp;Humidity;BMP_temperature;BMP_pressure;BME280_temperature;BME280_humidity;BME280_pressure;Samples;Min_cycle;Max_cycle;Signal;HPM_P1;HPM_P2
2024/02/13 00:00:49;;;;;;;1.97;1.20;;;;;;;11.56;100.00;100507.50;2088997;28;20183;-68
2024/02/13 00:01:51;;;;;;;1.87;1.10;;;;;;;11.57;100.00;100511.81;2089032;28;20565;-67
2024/02/13 00:02:52;;;;;;;2.60;1.37;;;;;;;11.14;100.00;100441.38;2089445;28;20207;-68
2024/02/13 00:03:53;;;;;;;2.27;1.27;;;;;;;11.60;100.00;100513.75;2088343;28;21033;-67
2024/02/13 00:04:56;;;;;;;1.50;1.00;;;;;;;10.76;100.00;100398.91;2088779;28;20446;-67
2024/02/13 00:05:58;;;;;;;1.67;1.40;;;;;;;11.63;100.00;100514.88;2089222;28;20192;-68
2024/02/13 00:06:59;;;;;;;2.33;1.27;;;;;;;11.64;100.00;100519.97;2088805;28;21168;-67
2024/02/13 00:08:00;;;;;;;2.40;1.43;;;;;;;11.71;100.00;100519.78;2088956;28;20415;-67
2024/02/13 00:09:01;;;;;;;1.50;1.27;;;;;;;11.71;100.00;100517.00;2089357;28;20647;-67
2024/02/13 00:10:07;;;;;;;1.60;1.30;;;;;;;11.56;100.00;100495.59;2089142;28;20456;-68
2024/02/13 00:11:08;;;;;;;1.63;1.10;;;;;;;11.65;100.00;100518.75;2088789;28;20279;-68
2024/02/13 00:12:09;;;;;;;1.90;1.33;;;;;;;11.58;100.00;100513.38;2084227;28;20920;-68
2024/02/13 00:13:09;;;;;;;1.37;0.90;;;;;;;11.45;100.00;100495.94;2084007;28;20191;-67
2024/02/13 00:14:10;;;;;;;2.03;1.57;;;;;;;11.59;100.00;100517.72;2088242;28;20215;-67
2024/02/13 00:15:14;;;;;;;1.63;1.13;;;;;;;11.57;100.00;100525.69;2088742;28;20180;-67
2024/02/13 00:16:17;;;;;;;1.80;1.23;;;;;;;11.01;100.00;100433.03;2080489;28;20292;-67
2024/02/13 00:17:17;;;;;;;2.07;1.30;;;;;;;11.63;100.00;100515.63;2087488;28;20466;-67
2024/02/13 00:18:19;;;;;;;2.20;1.30;;;;;;;11.63;100.00;100520.44;2089224;28;20430;-68
2024/02/13 00:19:20;;;;;;;1.80;1.00;;;;;;;11.08;100.00;100426.50;2089250;28;20234;-68
2024/02/13 00:20:21;;;;;;;1.50;1.10;;;;;;;11.58;100.00;100524.47;2088410;28;20443;-67
2024/02/13 00:21:21;;;;;;;1.20;1.00;;;;;;;11.56;100.00;100529.69;2088790;28;20180;-68
2024/02/13 00:22:23;;;;;;;4.60;1.37;;;;;;;11.57;100.00;100517.38;2097159;28;20237;-67
2024/02/13 00:23:24;;;;;;;2.00;1.23;;;;;;;11.53;100.00;100511.16;2096322;28;20563;-67
2024/02/13 00:24:25;;;;;;;1.83;1.23;;;;;;;11.37;100.00;100479.94;2086562;28;20561;-67
2024/02/13 00:25:28;;;;;;;2.40;1.40;;;;;;;11.39;100.00;100502.47;2088754;28;20241;-67
2024/02/13 00:26:28;;;;;;;1.20;0.90;;;;;;;11.60;100.00;100524.88;2088008;28;20430;-68
2024/02/13 00:27:32;;;;;;;2.87;1.17;;;;;;;11.59;100.00;100516.97;2090073;28;20472;-68
2024/02/13 00:28:33;;;;;;;1.73;1.00;;;;;;;11.66;100.00;100525.06;2090876;28;20230;-67
2024/02/13 00:29:33;;;;;;;1.77;1.23;;;;;;;11.64;100.00;100513.66;2091035;28;20497;-68
2024/02/13 00:30:35;;;;;;;1.20;0.90;;;;;;;11.63;100.00;100532.28;2089940;28;20302;-68
2024/02/13 00:31:36;;;;;;;3.13;1.30;;;;;;;11.32;100.00;100491.59;2097772;28;20183;-68
2024/02/13 00:32:39;;;;;;;2.20;1.37;;;;;;;10.99;100.00;100435.47;2098045;28;20448;-68
2024/02/13 00:33:40;;;;;;;1.50;1.23;;;;;;;11.60;100.00;100535.19;2089978;28;20438;-67
2024/02/13 00:34:42;;;;;;;1.27;1.00;;;;;;;11.60;100.00;100529.63;2090495;28;20418;-67
2024/02/13 00:35:42;;;;;;;2.20;1.10;;;;;;;11.55;100.00;100527.38;2090918;28;20198;-68
2024/02/13 00:36:44;;;;;;;2.10;1.50;;;;;;;11.55;100.00;100536.47;2090445;28;20466;-68
2024/02/13 00:37:46;;;;;;;1.93;1.20;;;;;;;11.56;100.00;100526.94;2090819;28;20173;-68
2024/02/13 00:38:46;;;;;;;1.30;1.00;;;;;;;11.17;100.00;100471.03;2090226;28;20935;-68
2024/02/13 00:39:47;;;;;;;1.30;1.03;;;;;;;11.57;100.00;100522.13;2090018;28;20816;-68
2024/02/13 00:40:48;;;;;;;2.30;1.30;;;;;;;11.12;100.00;100458.44;2084506;28;20732;-67
2024/02/13 00:41:51;;;;;;;2.17;1.07;;;;;;;11.39;100.00;100508.81;2090420;28;20184;-68
2024/02/13 00:42:52;;;;;;;1.77;1.20;;;;;;;11.59;100.00;100533.63;2090566;28;20426;-67
2024/02/13 00:43:53;;;;;;;2.47;1.43;;;;;;;11.39;100.00;100508.00;2090016;28;20518;-68
2024/02/13 00:44:54;;;;;;;2.13;1.30;;;;;;;11.60;100.00;100529.63;2089987;28;20449;-67
2024/02/13 00:45:55;;;;;;;2.07;1.20;;;;;;;11.61;100.00;100536.72;2086575;28;20474;-67
2024/02/13 00:46:57;;;;;;;1.70;1.20;;;;;;;11.64;100.00;100533.06;2086081;28;20176;-67
2024/02/13 00:47:57;;;;;;;2.13;1.30;;;;;;;11.56;100.00;100523.38;2090283;28;20438;-67
2024/02/13 00:48:58;;;;;;;1.67;1.27;;;;;;;11.69;100.00;100529.75;2090735;28;20472;-68
2024/02/13 00:49:58;;;;;;;2.47;1.47;;;;;;;11.71;100.00;100532.84;2090365;28;20241;-67
2024/02/13 00:50:59;;;;;;;2.40;1.30;;;;;;;11.75;100.00;100531.56;2086106;28;20552;-67
2024/02/13 00:52:01;;;;;;;1.67;1.40;;;;;;;11.80;100.00;100536.56;2090007;28;20669;-68
2024/02/13 00:53:01;;;;;;;1.83;1.27;;;;;;;11.76;100.00;100538.66;2090471;28;20231;-68
2024/02/13 00:54:02;;;;;;;1.90;1.50;;;;;;;11.81;100.00;100540.88;2090586;28;20954;-67
2024/02/13 00:55:03;;;;;;;1.57;1.27;;;;;;;11.84;100.00;100542.00;2090813;28;20626;-67
2024/02/13 00:56:06;;;;;;;1.90;1.20;;;;;;;11.87;100.00;100544.66;2090494;28;20183;-67
2024/02/13 00:57:08;;;;;;;1.40;1.20;;;;;;;11.84;100.00;100548.31;2090084;28;20219;-67
2024/02/13 00:58:09;;;;;;;1.97;1.40;;;;;;;11.75;100.00;100536.31;2090335;28;20969;-69
2024/02/13 00:59:10;;;;;;;4.43;1.37;;;;;;;11.78;100.00;100547.31;2090336;28;20434;-67
2024/02/13 01:00:11;;;;;;;1.80;1.33;;;;;;;11.84;100.00;100539.97;2089914;28;20421;-69
2024/02/13 01:01:12;;;;;;;2.00;1.17;;;;;;;11.82;100.00;100549.97;2090631;28;20238;-68
2024/02/13 01:02:17;;;;;;;1.90;1.40;;;;;;;11.85;100.00;100546.31;2090100;28;20271;-67
2024/02/13 01:03:17;;;;;;;1.63;1.50;;;;;;;11.83;100.00;100549.53;2089793;28;20456;-67
2024/02/13 01:04:18;;;;;;;2.30;1.60;;;;;;;11.84;100.00;100545.53;2089340;28;20448;-68
2024/02/13 01:05:18;;;;;;;2.33;1.50;;;;;;;11.40;100.00;100467.94;2089586;28;20285;-68
2024/02/13 01:06:18;;;;;;;2.90;1.67;;;;;;;11.86;100.00;100542.31;2090546;28;20214;-67
2024/02/13 01:07:19;;;;;;;1.77;1.33;;;;;;;11.83;100.00;100541.22;2090282;28;20192;-67
2024/02/13 01:08:23;;;;;;;2.67;1.47;;;;;;;11.84;100.00;100542.75;2089818;28;20188;-67
2024/02/13 01:09:25;;;;;;;2.23;1.30;;;;;;;11.83;100.00;100543.22;2083090;28;20287;-68
2024/02/13 01:10:25;;;;;;;1.97;1.27;;;;;;;11.59;100.00;100492.75;2087434;28;20438;-68
2024/02/13 01:11:26;;;;;;;1.40;1.10;;;;;;;11.97;100.00;100549.13;2088511;28;20455;-67
2024/02/13 01:12:27;;;;;;;1.53;1.13;;;;;;;11.96;100.00;100552.31;2089987;28;20270;-67
2024/02/13 01:13:27;;;;;;;1.90;1.00;;;;;;;11.68;100.00;100503.97;2089922;28;20267;-67
2024/02/13 01:14:28;;;;;;;1.80;1.30;;;;;;;11.61;100.00;100493.09;2090302;28;20180;-68
2024/02/13 01:15:29;;;;;;;2.20;1.33;;;;;;;11.95;100.00;100539.66;2089789;28;20215;-68
2024/02/13 01:16:29;;;;;;;3.00;1.50;;;;;;;11.97;100.00;100540.00;2090217;28;20615;-68
2024/02/13 01:17:30;;;;;;;2.47;1.57;;;;;;;11.92;100.00;100529.44;2089070;28;20689;-67
2024/02/13 01:18:30;;;;;;;2.47;1.70;;;;;;;11.93;100.00;100528.25;2087380;28;20684;-68
2024/02/13 01:19:31;;;;;;;1.70;1.30;;;;;;;12.00;100.00;100537.09;2088082;28;20202;-68
2024/02/13 01:20:31;;;;;;;2.20;1.50;;;;;;;11.89;100.00;100516.44;2090242;28;20176;-67
2024/02/13 01:21:32;;;;;;;1.90;1.47;;;;;;;11.44;100.00;100438.91;2089291;28;20176;-68
2024/02/13 01:22:32;;;;;;;1.90;1.40;;;;;;;11.94;100.00;100511.09;2089642;28;20266;-68
2024/02/13 01:23:33;;;;;;;2.70;1.70;;;;;;;11.96;100.00;100517.00;2089522;28;20188;-67
2024/02/13 01:24:33;;;;;;;1.80;1.30;;;;;;;11.96;100.00;100519.00;2088845;28;20183;-68
2024/02/13 01:25:35;;;;;;;2.30;1.50;;;;;;;11.59;100.00;100456.66;2090318;28;20180;-67
2024/02/13 01:26:35;;;;;;;2.93;1.50;;;;;;;11.82;100.00;100498.00;2092050;28;20176;-68
2024/02/13 01:27:40;;;;;;;1.93;1.50;;;;;;;11.16;100.00;100402.88;2080358;28;21011;-67
2024/02/13 01:28:40;;;;;;;2.83;1.70;;;;;;;11.85;100.00;100518.56;2086054;28;20188;-68
2024/02/13 01:29:41;;;;;;;2.27;1.53;;;;;;;11.41;100.00;100445.31;2088513;28;20426;-67
2024/02/13 01:30:41;;;;;;;2.00;1.60;;;;;;;11.78;100.00;100516.78;2088986;28;20208;-68
2024/02/13 01:31:42;;;;;;;2.67;1.67;;;;;;;11.84;100.00;100519.78;2088765;28;20293;-68
2024/02/13 01:32:43;;;;;;;2.50;1.90;;;;;;;11.79;100.00;100521.09;2090182;28;20181;-67
2024/02/13 01:33:44;;;;;;;2.23;1.60;;;;;;;11.78;100.00;100516.78;2097078;28;20184;-68
2024/02/13 01:34:44;;;;;;;3.00;1.50;;;;;;;11.49;100.00;100488.28;2097345;28;20460;-68
2024/02/13 01:35:45;;;;;;;2.27;1.37;;;;;;;11.65;100.00;100516.00;2088156;28;20667;-67
2024/02/13 01:36:45;;;;;;;2.47;1.37;;;;;;;11.58;100.00;100495.97;2089609;28;20613;-68
2024/02/13 01:37:46;;;;;;;2.90;1.70;;;;;;;11.70;100.00;100517.44;2089906;28;20657;-68
2024/02/13 01:38:47;;;;;;;3.67;1.70;;;;;;;11.55;100.00;100505.16;2089318;28;20681;-68
2024/02/13 01:39:47;;;;;;;4.47;2.13;;;;;;;11.69;100.00;100521.44;2089137;28;20704;-68
2024/02/13 01:40:48;;;;;;;3.00;1.90;;;;;;;11.12;100.00;100429.97;2086041;28;20217;-67
2024/02/13 01:41:49;;;;;;;4.00;1.50;;;;;;;11.63;100.00;100525.97;2089707;28;20571;-68
2024/02/13 01:42:50;;;;;;;4.77;1.77;;;;;;;11.61;100.00;100534.75;2089686;28;20431;-68
2024/02/13 01:43:50;;;;;;;2.20;1.50;;;;;;;11.20;100.00;100473.69;2089455;28;20679;-68
2024/02/13 01:44:53;;;;;;;4.40;1.80;;;;;;;10.75;100.00;100409.22;2090251;28;20176;-67
2024/02/13 01:45:56;;;;;;;2.63;1.67;;;;;;;11.56;100.00;100531.69;2089800;28;20568;-67
2024/02/13 01:46:57;;;;;;;2.80;1.67;;;;;;;11.10;100.00;100471.19;2094679;28;20422;-67
2024/02/13 01:48:01;;;;;;;2.10;1.50;;;;;;;11.43;100.00;100523.34;2096777;28;20437;-67
2024/02/13 01:49:03;;;;;;;4.13;1.77;;;;;;;11.23;100.00;100497.75;2088918;28;20560;-67
2024/02/13 01:50:06;;;;;;;2.37;1.70;;;;;;;10.83;100.00;100448.59;2089770;28;20988;-68
2024/02/13 01:51:09;;;;;;;2.20;1.53;;;;;;;11.40;100.00;100531.75;2089229;28;20462;-67
2024/02/13 01:52:12;;;;;;;2.90;1.80;;;;;;;11.40;100.00;100538.09;2089859;28;20939;-68
2024/02/13 01:53:14;;;;;;;1.83;1.50;;;;;;;11.33;100.00;100529.97;2089462;28;20415;-67
2024/02/13 01:54:15;;;;;;;2.13;1.30;;;;;;;11.33;100.00;100535.50;2088725;28;20521;-68
2024/02/13 01:55:19;;;;;;;2.30;1.43;;;;;;;11.34;100.00;100536.31;2089324;28;20813;-68
2024/02/13 01:56:24;;;;;;;3.43;1.63;;;;;;;10.95;100.00;100465.28;2089837;28;20536;-67
2024/02/13 01:57:26;;;;;;;2.90;1.73;;;;;;;11.08;100.00;100479.97;2089442;28;21106;-68
2024/02/13 01:58:30;;;;;;;3.07;1.77;;;;;;;11.37;100.00;100522.31;2089382;28;20861;-67
2024/02/13 01:59:38;;;;;;;1.87;1.27;;;;;;;11.39;100.00;100530.22;2089378;28;20415;-68
2024/02/13 02:00:39;;;;;;;3.27;1.70;;;;;;;11.17;100.00;100498.75;2089617;28;20421;-68
2024/02/13 02:01:42;;;;;;;2.17;1.50;;;;;;;11.34;100.00;100530.75;2089549;28;20442;-67
2024/02/13 02:02:45;;;;;;;2.57;1.60;;;;;;;10.91;100.00;100459.06;2089497;28;20909;-68
2024/02/13 02:03:47;;;;;;;1.97;1.50;;;;;;;11.38;100.00;100525.88;2088788;28;20525;-68
2024/02/13 02:04:49;;;;;;;2.53;1.43;;;;;;;10.41;100.00;100378.47;2089214;28;20800;-67
2024/02/13 02:05:51;;;;;;;2.10;1.40;;;;;;;11.43;100.00;100531.66;2089500;28;20866;-68
2024/02/13 02:06:52;;;;;;;3.57;1.73;;;;;;;11.32;100.00;100513.78;2090183;28;20422;-68
2024/02/13 02:07:53;;;;;;;2.73;1.70;;;;;;;11.47;100.00;100534.34;2090061;28;20421;-68
2024/02/13 02:08:55;;;;;;;2.97;1.80;;;;;;;11.44;100.00;100532.44;2089598;28;20204;-67
2024/02/13 02:09:58;;;;;;;2.87;1.50;;;;;;;11.10;100.00;100488.63;2097165;28;20442;-67
2024/02/13 02:10:58;;;;;;;5.03;1.67;;;;;;;10.97;100.00;100454.53;2094297;28;20430;-67
2024/02/13 02:12:00;;;;;;;3.00;1.87;;;;;;;11.47;100.00;100534.34;2089011;28;20446;-68
2024/02/13 02:13:01;;;;;;;3.77;1.83;;;;;;;11.43;100.00;100533.66;2089473;28;20630;-67
2024/02/13 02:14:01;;;;;;;2.77;1.80;;;;;;;11.12;100.00;100477.88;2089741;28;20430;-67
2024/02/13 02:15:04;;;;;;;2.57;1.97;;;;;;;11.06;100.00;100482.41;2089518;28;21108;-68
2024/02/13 02:16:06;;;;;;;3.70;2.20;;;;;;;11.41;100.00;100542.44;2088832;28;20187;-68
2024/02/13 02:17:10;;;;;;;2.53;1.40;;;;;;;11.36;100.00;100545.75;2089678;28;20447;-68
2024/02/13 02:18:12;;;;;;;3.80;2.10;;;;;;;10.94;100.00;100472.06;2084717;28;20503;-67
2024/02/13 02:19:12;;;;;;;2.60;1.53;;;;;;;11.30;100.00;100541.94;2089141;28;20418;-68
2024/02/13 02:20:13;;;;;;;2.97;2.00;;;;;;;11.31;100.00;100526.84;2088548;28;20954;-67
2024/02/13 02:21:17;;;;;;;3.07;1.70;;;;;;;10.61;100.00;100426.22;2089937;28;20208;-68
2024/02/13 02:22:17;;;;;;;3.00;2.17;;;;;;;11.33;100.00;100534.75;2088482;28;20235;-67
2024/02/13 02:23:22;;;;;;;3.53;1.90;;;;;;;11.02;100.00;100490.03;2089349;28;20438;-68
2024/02/13 02:24:22;;;;;;;3.53;1.70;;;;;;;10.88;100.00;100468.25;2089195;28;20180;-68
2024/02/13 02:25:23;;;;;;;3.17;1.60;;;;;;;11.16;100.00;100534.03;2088596;28;20517;-68
2024/02/13 02:26:25;;;;;;;2.10;1.40;;;;;;;10.62;100.00;100446.41;2088118;28;20184;-67
2024/02/13 02:27:25;;;;;;;3.03;1.47;;;;;;;11.15;100.00;100528.91;2089028;28;20264;-67
2024/02/13 02:28:26;;;;;;;2.63;1.60;;;;;;;11.00;100.00;100502.78;2089568;28;20435;-67
2024/02/13 02:29:26;;;;;;;3.07;1.70;;;;;;;11.14;100.00;100530.91;2088509;28;20274;-68
2024/02/13 02:30:27;;;;;;;2.27;1.60;;;;;;;10.75;100.00;100463.84;2088680;28;20184;-70
2024/02/13 02:31:27;;;;;;;2.57;1.70;;;;;;;11.18;100.00;100528.03;2087135;28;20188;-67
2024/02/13 02:32:28;;;;;;;1.73;1.50;;;;;;;11.17;100.00;100527.25;2087860;28;20176;-67
2024/02/13 02:33:28;;;;;;;2.57;1.70;;;;;;;10.59;100.00;100434.22;2089331;28;20184;-68
2024/02/13 02:34:29;;;;;;;2.20;1.30;;;;;;;11.15;100.00;100523.34;2089450;28;20302;-68
2024/02/13 02:35:29;;;;;;;1.93;1.47;;;;;;;11.16;100.00;100520.16;2089430;28;20233;-67
2024/02/13 02:36:30;;;;;;;2.03;1.50;;;;;;;10.78;100.00;100457.44;2093627;28;20283;-67
2024/02/13 02:37:31;;;;;;;2.33;1.60;;;;;;;11.15;100.00;100515.81;2095245;28;20593;-67
2024/02/13 02:38:38;;;;;;;1.87;1.43;;;;;;;10.78;100.00;100454.69;2096528;28;20179;-67
2024/02/13 02:39:38;;;;;;;2.50;1.50;;;;;;;11.18;100.00;100523.25;2096195;28;20917;-69
2024/02/13 02:40:39;;;;;;;2.10;1.30;;;;;;;10.04;100.00;100370.00;2089757;28;20430;-67
2024/02/13 02:41:39;;;;;;;4.37;1.37;;;;;;;11.19;100.00;100535.13;2089031;28;20579;-68
2024/02/13 02:42:40;;;;;;;2.43;1.20;;;;;;;10.76;100.00;100474.50;2089140;28;20184;-67
2024/02/13 02:43:41;;;;;;;1.90;1.20;;;;;;;11.20;100.00;100531.13;2088248;28;20187;-67
2024/02/13 02:44:41;;;;;;;3.77;1.97;;;;;;;11.10;100.00;100513.59;2088925;28;20184;-68
2024/02/13 02:45:42;;;;;;;1.43;1.20;;;;;;;11.11;100.00;100523.47;2088615;28;20189;-68
2024/02/13 02:46:42;;;;;;;4.20;1.27;;;;;;;11.27;100.00;100528.94;2089913;28;20186;-67
2024/02/13 02:47:43;;;;;;;1.67;1.20;;;;;;;11.31;100.00;100531.63;2088877;28;20194;-68
2024/02/13 02:48:43;;;;;;;1.37;1.10;;;;;;;11.32;100.00;100533.97;2089213;28;20180;-68
2024/02/13 02:49:44;;;;;;;2.03;1.30;;;;;;;11.31;100.00;100526.06;2085922;28;20185;-68
2024/02/13 02:50:44;;;;;;;1.53;1.20;;;;;;;11.40;100.00;100537.31;2087298;28;20173;-68
2024/02/13 02:51:46;;;;;;;2.37;1.30;;;;;;;11.42;100.00;100534.91;2088747;28;20259;-68
2024/02/13 02:52:47;;;;;;;3.37;1.30;;;;;;;11.39;100.00;100531.00;2089021;28;20172;-67
2024/02/13 02:53:47;;;;;;;1.73;1.10;;;;;;;11.03;100.00;100483.28;2087540;28;20453;-69
2024/02/13 02:54:48;;;;;;;1.57;1.13;;;;;;;10.64;100.00;100427.34;2088982;28;20188;-68
2024/02/13 02:55:49;;;;;;;3.20;1.50;;;;;;;11.23;100.00;100522.72;2088826;28;20576;-68
2024/02/13 02:56:49;;;;;;;1.93;1.33;;;;;;;11.37;100.00;100538.97;2089155;28;20280;-68
2024/02/13 02:57:53;;;;;;;2.90;1.30;;;;;;;11.40;100.00;100537.31;2088700;28;20184;-68
2024/02/13 02:58:55;;;;;;;2.27;1.10;;;;;;;11.40;100.00;100543.66;2089730;28;20176;-67
2024/02/13 02:59:56;;;;;;;2.43;1.53;;;;;;;10.90;100.00;100459.47;2088569;28;20835;-68
2024/02/13 03:00:56;;;;;;;2.23;1.13;;;;;;;11.45;100.00;100537.56;2088069;28;20522;-67
2024/02/13 03:01:57;;;;;;;1.90;1.13;;;;;;;11.11;100.00;100489.38;2089230;28;20191;-67
2024/02/13 03:02:57;;;;;;;1.33;1.00;;;;;;;11.28;100.00;100532.50;2088266;28;20192;-67
2024/02/13 03:03:58;;;;;;;1.40;1.00;;;;;;;11.26;100.00;100541.25;2080055;28;20195;-67
2024/02/13 03:04:59;;;;;;;2.57;1.30;;;;;;;11.32;100.00;100542.28;2081274;28;20177;-68
2024/02/13 03:05:59;;;;;;;1.70;1.13;;;;;;;11.31;100.00;100549.06;2088331;28;20206;-67
2024/02/13 03:07:00;;;;;;;2.20;1.60;;;;;;;11.32;100.00;100547.06;2080615;28;20661;-67
2024/02/13 03:08:00;;;;;;;1.80;1.20;;;;;;;11.34;100.00;100545.41;2087279;28;20203;-68
2024/02/13 03:09:02;;;;;;;1.97;1.50;;;;;;;11.40;100.00;100543.66;2088969;28;20205;-68
2024/02/13 03:10:10;;;;;;;1.07;0.97;;;;;;;11.41;100.00;100542.44;2088827;28;20176;-68
2024/02/13 03:11:10;;;;;;;1.77;1.10;;;;;;;11.41;100.00;100545.19;2089266;28;20419;-68
2024/02/13 03:12:11;;;;;;;1.70;1.20;;;;;;;11.43;100.00;100542.00;2089631;28;20429;-67
2024/02/13 03:13:13;;;;;;;1.90;1.33;;;;;;;11.41;100.00;100539.66;2088577;28;20610;-68
2024/02/13 03:14:14;;;;;;;1.63;1.03;;;;;;;11.40;100.00;100542.84;2087224;28;20191;-67
2024/02/13 03:15:14;;;;;;;1.53;1.10;;;;;;;11.04;100.00;100484.06;2088728;28;20434;-67
2024/02/13 03:16:15;;;;;;;2.10;1.33;;;;;;;11.37;100.00;100538.22;2088769;28;20207;-67
2024/02/13 03:17:15;;;;;;;2.03;1.10;;;;;;;11.42;100.00;100546.75;2088535;28;20564;-68
2024/02/13 03:18:17;;;;;;;1.33;0.83;;;;;;;11.44;100.00;100540.78;2089612;28;20680;-68
2024/02/13 03:19:18;;;;;;;1.83;1.20;;;;;;;11.44;100.00;100544.34;2089192;28;20206;-67
2024/02/13 03:20:18;;;;;;;1.43;1.00;;;;;;;11.42;100.00;100540.44;2089265;28;20447;-69
2024/02/13 03:21:19;;;;;;;2.30;1.20;;;;;;;11.36;100.00;100533.84;2085886;28;20204;-68
2024/02/13 03:22:19;;;;;;;1.00;0.90;;;;;;;11.40;100.00;100548.41;2088265;28;20461;-67
2024/02/13 03:23:20;;;;;;;1.17;0.80;;;;;;;11.04;100.00;100479.28;2096101;28;20204;-68
2024/02/13 03:24:20;;;;;;;1.10;0.80;;;;;;;11.24;100.00;100515.19;2088745;28;20184;-67
2024/02/13 03:25:21;;;;;;;1.17;0.80;;;;;;;11.37;100.00;100536.19;2082043;28;20702;-68
2024/02/13 03:26:21;;;;;;;1.17;0.80;;;;;;;11.33;100.00;100529.97;2083051;28;20212;-68
2024/02/13 03:27:22;;;;;;;1.17;0.80;;;;;;;11.38;100.00;100528.66;2089778;28;20185;-68
2024/02/13 03:28:22;;;;;;;0.70;0.60;;;;;;;11.33;100.00;100529.97;2089406;28;20187;-68
2024/02/13 03:29:23;;;;;;;1.00;0.67;;;;;;;11.24;100.00;100527.06;2089168;28;20195;-68
2024/02/13 03:30:23;;;;;;;0.80;0.60;;;;;;;11.16;100.00;100522.13;2089405;28;20176;-70
2024/02/13 03:31:24;;;;;;;0.87;0.80;;;;;;;11.18;100.00;100533.59;2088258;28;20195;-67
2024/02/13 03:32:25;;;;;;;1.83;1.10;;;;;;;10.65;100.00;100465.72;2088649;28;20186;-67
2024/02/13 03:33:26;;;;;;;0.90;0.73;;;;;;;10.92;100.00;100496.66;2089709;28;20202;-68
2024/02/13 03:34:26;;;;;;;0.80;0.50;;;;;;;11.03;100.00;100511.03;2086373;28;20441;-68
2024/02/13 03:35:29;;;;;;;1.30;0.70;;;;;;;10.98;100.00;100519.09;2088494;28;20191;-68
2024/02/13 03:36:30;;;;;;;1.13;0.67;;;;;;;11.19;100.00;100538.69;2089389;28;20226;-67
2024/02/13 03:37:31;;;;;;;1.00;0.70;;;;;;;11.18;100.00;100536.34;2089109;28;20419;-67
2024/02/13 03:38:31;;;;;;;0.87;0.60;;;;;;;11.13;100.00;100540.44;2088485;28;20196;-68
2024/02/13 03:39:32;;;;;;;1.03;0.70;;;;;;;10.59;100.00;100458.34;2087983;28;20191;-68
2024/02/13 03:40:32;;;;;;;0.90;0.73;;;;;;;11.13;100.00;100542.44;2088217;28;20698;-68
2024/02/13 03:41:40;;;;;;;1.50;0.80;;;;;;;10.88;100.00;100511.81;2088785;28;20263;-68
2024/02/13 03:42:41;;;;;;;1.30;0.90;;;;;;;11.11;100.00;100540.09;2087137;28;20259;-67
2024/02/13 03:43:43;;;;;;;0.83;0.67;;;;;;;11.09;100.00;100534.22;2089003;28;20426;-67
2024/02/13 03:44:45;;;;;;;1.00;0.67;;;;;;;11.13;100.00;100542.44;2088874;28;20191;-68
2024/02/13 03:45:46;;;;;;;1.40;0.80;;;;;;;10.91;100.00;100510.97;2087868;28;20426;-67
2024/02/13 03:46:46;;;;;;;2.27;1.03;;;;;;;11.10;100.00;100543.31;2088402;28;20481;-68
2024/02/13 03:47:47;;;;;;;0.90;0.80;;;;;;;11.18;100.00;100550.22;2088811;28;20173;-68
2024/02/13 03:48:47;;;;;;;1.10;0.90;;;;;;;10.89;100.00;100503.09;2088855;28;20183;-68
2024/02/13 03:49:48;;;;;;;1.40;1.00;;;;;;;11.16;100.00;100558.97;2089171;28;20179;-68
2024/02/13 03:50:48;;;;;;;1.50;1.10;;;;;;;10.65;100.00;100467.72;2088655;28;20192;-68
2024/02/13 03:51:49;;;;;;;1.93;0.97;;;;;;;10.43;100.00;100433.44;2087473;28;20198;-68
2024/02/13 03:52:49;;;;;;;3.63;1.23;;;;;;;10.32;100.00;100416.34;2089497;28;20278;-67
2024/02/13 03:53:50;;;;;;;1.03;0.80;;;;;;;11.18;100.00;100551.00;2087770;28;20172;-68
2024/02/13 03:54:51;;;;;;;1.20;0.90;;;;;;;10.65;100.00;100479.56;2081927;28;20181;-68
2024/02/13 03:55:51;;;;;;;1.33;0.87;;;;;;;10.74;100.00;100504.69;2089520;28;20184;-67
2024/02/13 03:56:52;;;;;;;0.93;0.80;;;;;;;10.96;100.00;100536.16;2088984;28;20202;-68
2024/02/13 03:57:52;;;;;;;2.23;1.10;;;;;;;11.06;100.00;100559.28;2088118;28;20275;-68
2024/02/13 03:58:53;;;;;;;1.73;0.97;;;;;;;10.67;100.00;100493.00;2088929;28;20175;-67
2024/02/13 03:59:53;;;;;;;1.07;0.80;;;;;;;11.08;100.00;100554.84;2094290;28;20233;-68
2024/02/13 04:00:54;;;;;;;1.43;1.00;;;;;;;11.07;100.00;100558.81;2091998;28;20530;-67
2024/02/13 04:01:54;;;;;;;1.73;1.00;;;;;;;11.07;100.00;100556.06;2088840;28;20650;-67
2024/02/13 04:02:55;;;;;;;1.10;1.00;;;;;;;11.05;100.00;100566.03;2088782;28;20184;-67
2024/02/13 04:03:55;;;;;;;1.00;0.80;;;;;;;11.11;100.00;100558.72;2086518;28;20184;-67
2024/02/13 04:04:56;;;;;;;1.33;0.80;;;;;;;10.72;100.00;100512.63;2088577;28;20278;-68
2024/02/13 04:05:57;;;;;;;1.60;1.07;;;;;;;10.91;100.00;100542.22;2088337;28;20177;-68
2024/02/13 04:06:57;;;;;;;1.17;0.90;;;;;;;10.68;100.00;100505.63;2088783;28;20190;-68
2024/02/13 04:07:58;;;;;;;1.77;1.00;;;;;;;10.72;100.00;100503.56;2089303;28;20258;-68
2024/02/13 04:09:00;;;;;;;1.17;1.03;;;;;;;11.01;100.00;100566.13;2089858;28;20207;-67
2024/02/13 04:10:02;;;;;;;2.07;0.97;;;;;;;10.99;100.00;100548.38;2094172;28;20211;-67
2024/02/13 04:11:03;;;;;;;1.03;0.80;;;;;;;10.52;100.00;100486.25;2084153;28;21007;-67
2024/02/13 04:12:09;;;;;;;1.60;1.10;;;;;;;10.93;100.00;100544.56;2088493;28;20452;-67
2024/02/13 04:13:09;;;;;;;1.07;0.83;;;;;;;10.93;100.00;100553.69;2086900;28;20419;-68
2024/02/13 04:14:11;;;;;;;2.17;1.00;;;;;;;10.92;100.00;100541.00;2089368;28;20499;-68
2024/02/13 04:15:13;;;;;;;0.93;0.87;;;;;;;10.89;100.00;100549.41;2089154;28;20195;-67
2024/02/13 04:16:15;;;;;;;2.37;0.90;;;;;;;10.90;100.00;100556.53;2088768;28;20931;-67
2024/02/13 04:17:17;;;;;;;1.60;1.00;;;;;;;10.78;100.00;100538.63;2088982;28;20443;-67
2024/02/13 04:18:18;;;;;;;1.07;0.80;;;;;;;10.93;100.00;100550.13;2087543;28;20848;-68
2024/02/13 04:19:18;;;;;;;0.90;0.77;;;;;;;10.90;100.00;100531.56;2089052;28;20446;-68
2024/02/13 04:20:19;;;;;;;1.90;1.10;;;;;;;10.99;100.00;100560.25;2088439;28;20683;-67
2024/02/13 04:21:21;;;;;;;1.30;0.93;;;;;;;10.98;100.00;100552.34;2085762;28;20188;-67
2024/02/13 04:22:21;;;;;;;1.30;0.90;;;;;;;10.97;100.00;100565.44;2084943;28;20263;-70
2024/02/13 04:23:22;;;;;;;1.33;1.00;;;;;;;10.48;100.00;100474.47;2088638;28;20488;-68
2024/02/13 04:24:22;;;;;;;1.50;1.00;;;;;;;10.86;100.00;100537.22;2088204;28;20184;-68
2024/02/13 04:25:23;;;;;;;1.90;1.17;;;;;;;10.73;100.00;100533.59;2087490;28;20184;-67
2024/02/13 04:26:23;;;;;;;0.83;0.73;;;;;;;11.00;100.00;100561.00;2083564;28;20172;-67
2024/02/13 04:27:24;;;;;;;1.50;0.93;;;;;;;10.99;100.00;100563.00;2087195;28;20222;-67
2024/02/13 04:28:25;;;;;;;2.60;0.70;;;;;;;10.96;100.00;100563.88;2087895;28;20533;-68
2024/02/13 04:29:25;;;;;;;1.27;0.70;;;;;;;10.83;100.00;100545.63;2089011;28;20195;-68
2024/02/13 04:30:26;;;;;;;2.50;1.03;;;;;;;10.96;100.00;100569.41;2088879;28;20190;-68
2024/02/13 04:31:26;;;;;;;1.43;0.73;;;;;;;10.88;100.00;100553.41;2088640;28;20192;-67
2024/02/13 04:32:27;;;;;;;1.90;1.00;;;;;;;10.87;100.00;100562.94;2088117;28;20245;-67
2024/02/13 04:33:27;;;;;;;1.63;1.13;;;;;;;10.86;100.00;100570.47;2089387;28;20233;-67
2024/02/13 04:34:28;;;;;;;1.57;1.00;;;;;;;10.87;100.00;100566.47;2088456;28;20195;-67
2024/02/13 04:35:28;;;;;;;1.03;0.93;;;;;;;10.91;100.00;100569.19;2083485;28;20211;-67
2024/02/13 04:36:30;;;;;;;2.00;1.00;;;;;;;10.91;100.00;100581.03;2091767;28;20253;-68
2024/02/13 04:37:31;;;;;;;1.43;0.80;;;;;;;10.91;100.00;100602.47;2096410;28;20177;-67
2024/02/13 04:38:32;;;;;;;1.50;1.00;;;;;;;10.93;100.00;100575.06;2081099;28;20504;-67
2024/02/13 04:39:32;;;;;;;1.30;1.10;;;;;;;10.64;100.00;100536.22;2089061;28;20415;-68
2024/02/13 04:40:33;;;;;;;1.40;1.03;;;;;;;10.46;100.00;100510.94;2085186;28;20191;-67
2024/02/13 04:41:34;;;;;;;0.97;0.80;;;;;;;10.48;100.00;100521.59;2083859;28;20275;-68